Terminal Aerodrome Forecast
Issued by NWS

Home | Current Version | Previous Version | Text Only | Print | Product List | Glossary On
Versions: 1 2 3 4 5 6 7 8 9 10 11 12 13 14
000
FTUS41 KPBZ 051729
TAFLBE
TAF
KLBE 051729Z 0518/0618 VRB04KT P6SM SCT040 BKN250
     FM060500 00000KT 4SM BR BKN150
     FM060900 13005KT P6SM VCSH BKN050
     FM061400 16004KT 6SM -SHRA VCTS BKN035CB OVC050=

USA.gov is the U.S. government's official web portal to all federal, state and local government web resources and services.